Time;durP1;ratioP1;P1;durP2;ratioP2;P2;SDS_P1;SDS_P2;PMS_P1;PMS_P2;Temp;Humidity;BMP_temperature;BMP_pressure;BME280_temperature;BME280_humidity;BME280_pressure;Samples;Min_cycle;Max_cycle;Signal;HPM_P1;HPM_P2
2022/04/10 00:00:19;;;;;;;0.10;0.10;;;;;;;;;;4961352;28;20417;-90
2022/04/10 00:02:45;;;;;;;0.10;0.10;;;;;;;;;;4945366;28;20090;-90
2022/04/10 00:05:11;;;;;;;0.10;0.10;;;;;;;;;;4960959;28;20452;-91
2022/04/10 00:07:37;;;;;;;0.20;0.20;;;;;;;;;;4944967;28;20085;-90
2022/04/10 00:10:04;;;;;;;0.10;0.10;;;;;;;;;;4976907;28;20045;-89
2022/04/10 00:12:29;;;;;;;0.10;0.10;;;;;;;;;;4945184;28;20058;-91
2022/04/10 00:14:55;;;;;;;0.10;0.10;;;;;;;;;;4944842;28;20068;-91
2022/04/10 00:17:21;;;;;;;0.10;0.10;;;;;;;;;;4961378;28;20069;-90
2022/04/10 00:19:49;;;;;;;0.10;0.10;;;;;;;;;;4944954;28;20130;-90
2022/04/10 00:22:15;;;;;;;0.10;0.10;;;;;;;;;;4960711;28;20050;-90
2022/04/10 00:24:41;;;;;;;0.10;0.10;;;;;;;;;;4944575;28;20517;-91
2022/04/10 00:27:07;;;;;;;0.15;0.15;;;;;;;;;;4961087;28;20053;-90
2022/04/10 00:29:33;;;;;;;0.10;0.10;;;;;;;;;;4960637;28;20113;-91
2022/04/10 00:31:59;;;;;;;0.10;0.10;;;;;;;;;;4945148;28;20038;-90
2022/04/10 00:34:25;;;;;;;0.10;0.10;;;;;;;;;;4944643;28;20382;-91
2022/04/10 00:36:51;;;;;;;0.10;0.10;;;;;;;;;;4944743;28;20084;-92
2022/04/10 00:39:17;;;;;;;0.10;0.10;;;;;;;;;;4960542;28;20125;-90
2022/04/10 00:41:43;;;;;;;0.10;0.10;;;;;;;;;;4944503;28;20042;-91
2022/04/10 00:44:10;;;;;;;0.10;0.10;;;;;;;;;;4944637;28;20077;-92
2022/04/10 00:46:36;;;;;;;0.10;0.10;;;;;;;;;;4960785;28;20461;-90
2022/04/10 00:49:02;;;;;;;0.15;0.15;;;;;;;;;;4959760;28;20049;-91
2022/04/10 00:51:46;;;;;;;0.10;0.10;;;;;;;;;;4944101;28;20042;-90
2022/04/10 00:54:14;;;;;;;0.10;0.10;;;;;;;;;;4962804;28;20045;-90
2022/04/10 00:56:40;;;;;;;0.10;0.10;;;;;;;;;;4944609;28;20429;-91
2022/04/10 00:59:07;;;;;;;0.10;0.10;;;;;;;;;;4960347;28;20401;-90
2022/04/10 01:01:34;;;;;;;0.10;0.10;;;;;;;;;;4959915;28;20393;-91
2022/04/10 01:04:00;;;;;;;0.10;0.10;;;;;;;;;;4960249;28;20100;-90
2022/04/10 01:06:26;;;;;;;0.10;0.10;;;;;;;;;;4960008;28;20132;-90
2022/04/10 01:08:52;;;;;;;0.10;0.10;;;;;;;;;;4959931;28;20122;-91
2022/04/10 01:11:18;;;;;;;0.10;0.10;;;;;;;;;;4976118;28;20057;-91
2022/04/10 01:13:44;;;;;;;0.10;0.10;;;;;;;;;;4943970;28;20112;-91
2022/04/10 01:16:10;;;;;;;0.10;0.10;;;;;;;;;;4944419;28;20145;-90
2022/04/10 01:18:36;;;;;;;0.10;0.10;;;;;;;;;;4943922;28;20053;-90
2022/04/10 01:21:02;;;;;;;0.10;0.10;;;;;;;;;;4944012;28;20453;-91
2022/04/10 01:23:29;;;;;;;0.10;0.10;;;;;;;;;;4943946;28;20045;-92
2022/04/10 01:25:55;;;;;;;0.10;0.10;;;;;;;;;;4959943;28;20047;-92
2022/04/10 01:28:21;;;;;;;0.10;0.10;;;;;;;;;;4959922;28;20034;-91
2022/04/10 01:30:47;;;;;;;0.10;0.10;;;;;;;;;;4976145;28;20121;-90
2022/04/10 01:33:13;;;;;;;0.10;0.10;;;;;;;;;;4960144;28;20042;-91
2022/04/10 01:35:39;;;;;;;0.10;0.10;;;;;;;;;;4960230;28;20034;-91
2022/04/10 01:38:05;;;;;;;0.10;0.10;;;;;;;;;;4960014;28;20181;-89
2022/04/10 01:40:31;;;;;;;0.10;0.10;;;;;;;;;;4959714;28;20042;-90
2022/04/10 01:42:57;;;;;;;0.10;0.10;;;;;;;;;;4943610;28;20100;-90
2022/04/10 01:45:23;;;;;;;0.10;0.10;;;;;;;;;;4943687;28;20129;-88
2022/04/10 01:47:53;;;;;;;0.10;0.10;;;;;;;;;;4943543;28;20053;-89
2022/04/10 01:50:19;;;;;;;0.10;0.10;;;;;;;;;;4943735;28;20042;-89
2022/04/10 01:52:45;;;;;;;0.10;0.10;;;;;;;;;;4959376;28;20049;-88
2022/04/10 01:55:11;;;;;;;0.10;0.10;;;;;;;;;;4959601;28;20042;-88
2022/04/10 01:57:37;;;;;;;0.10;0.10;;;;;;;;;;4943507;28;20039;-90
2022/04/10 02:00:06;;;;;;;0.10;0.10;;;;;;;;;;4959575;28;20125;-90
2022/04/10 02:02:32;;;;;;;0.10;0.10;;;;;;;;;;4959507;28;20050;-89
2022/04/10 02:04:58;;;;;;;0.10;0.10;;;;;;;;;;4975393;28;20183;-89
2022/04/10 02:07:24;;;;;;;0.10;0.10;;;;;;;;;;4959220;28;20559;-89
2022/04/10 02:10:04;;;;;;;0.10;0.10;;;;;;;;;;5152046;27;20366;-90
2022/04/10 02:12:33;;;;;;;0.10;0.10;;;;;;;;;;5116128;27;20054;-89
2022/04/10 02:14:59;;;;;;;0.10;0.10;;;;;;;;;;5116349;27;20034;-88
2022/04/10 02:17:25;;;;;;;0.10;0.10;;;;;;;;;;5133147;27;20068;-89
2022/04/10 02:19:52;;;;;;;0.10;0.10;;;;;;;;;;5133244;27;20038;-90
2022/04/10 02:22:18;;;;;;;0.10;0.10;;;;;;;;;;5133099;27;20039;-89
2022/04/10 02:24:44;;;;;;;0.10;0.10;;;;;;;;;;5133567;27;20129;-89
2022/04/10 02:27:10;;;;;;;0.10;0.10;;;;;;;;;;5116144;27;20038;-88
2022/04/10 02:29:36;;;;;;;0.10;0.10;;;;;;;;;;5133092;27;20051;-90
2022/04/10 02:32:02;;;;;;;0.10;0.10;;;;;;;;;;5116022;27;20099;-91
2022/04/10 02:34:28;;;;;;;0.10;0.10;;;;;;;;;;5116279;27;20071;-90
2022/04/10 02:36:54;;;;;;;0.10;0.10;;;;;;;;;;5116077;27;20038;-89
2022/04/10 02:39:20;;;;;;;0.10;0.10;;;;;;;;;;5132666;27;20485;-90
2022/04/10 02:41:46;;;;;;;0.10;0.10;;;;;;;;;;5115765;27;20110;-90
2022/04/10 02:44:12;;;;;;;0.10;0.10;;;;;;;;;;5115686;27;20043;-90
2022/04/10 02:46:38;;;;;;;0.10;0.10;;;;;;;;;;5115640;27;20078;-89
2022/04/10 02:49:04;;;;;;;0.10;0.10;;;;;;;;;;5116314;27;20109;-90
2022/04/10 02:51:30;;;;;;;0.10;0.10;;;;;;;;;;5132748;27;20038;-90
2022/04/10 02:53:56;;;;;;;0.10;0.10;;;;;;;;;;5115531;27;20035;-90
2022/04/10 02:56:22;;;;;;;0.10;0.10;;;;;;;;;;5132569;27;20034;-90
2022/04/10 02:58:48;;;;;;;0.10;0.10;;;;;;;;;;5132338;27;20050;-89
2022/04/10 03:01:14;;;;;;;0.10;0.10;;;;;;;;;;5132309;27;20050;-89
2022/04/10 03:03:40;;;;;;;0.10;0.10;;;;;;;;;;5132341;27;20133;-90
2022/04/10 03:06:06;;;;;;;0.10;0.10;;;;;;;;;;5149972;27;20039;-91
2022/04/10 03:08:31;;;;;;;0.10;0.10;;;;;;;;;;5132395;27;20055;-89
2022/04/10 03:10:57;;;;;;;0.10;0.10;;;;;;;;;;5132132;27;20211;-90
2022/04/10 03:13:24;;;;;;;0.10;0.10;;;;;;;;;;5132160;27;20035;-90
2022/04/10 03:15:50;;;;;;;0.10;0.10;;;;;;;;;;5132393;27;20135;-90
2022/04/10 03:18:16;;;;;;;0.10;0.10;;;;;;;;;;5115347;27;20047;-89
2022/04/10 03:20:41;;;;;;;0.10;0.10;;;;;;;;;;5122741;27;20453;-91
2022/04/10 03:23:10;;;;;;;0.10;0.10;;;;;;;;;;5118575;27;20230;-89
2022/04/10 03:25:36;;;;;;;0.10;0.10;;;;;;;;;;5101463;27;20035;-89
2022/04/10 03:28:02;;;;;;;0.10;0.10;;;;;;;;;;5101246;27;20050;-89
2022/04/10 03:30:28;;;;;;;0.10;0.10;;;;;;;;;;5101451;27;20035;-89
2022/04/10 03:32:54;;;;;;;0.10;0.10;;;;;;;;;;5115062;27;20039;-91
2022/04/10 03:35:20;;;;;;;0.10;0.10;;;;;;;;;;5135475;27;20043;-90
2022/04/10 03:37:46;;;;;;;0.10;0.10;;;;;;;;;;5111051;27;20101;-92
2022/04/10 03:40:13;;;;;;;0.20;0.20;;;;;;;;;;5118866;27;20031;-92
2022/04/10 03:42:39;;;;;;;0.10;0.10;;;;;;;;;;5124362;27;20040;-92
2022/04/10 03:45:06;;;;;;;0.10;0.10;;;;;;;;;;5137304;27;20077;-91
2022/04/10 03:47:32;;;;;;;0.10;0.10;;;;;;;;;;5135275;27;20099;-93
2022/04/10 03:49:58;;;;;;;0.10;0.10;;;;;;;;;;5101731;27;20039;-92
2022/04/10 03:52:24;;;;;;;0.10;0.10;;;;;;;;;;5101538;27;20035;-89
2022/04/10 03:54:53;;;;;;;0.10;0.10;;;;;;;;;;5118298;27;20089;-90
2022/04/10 03:57:19;;;;;;;0.10;0.10;;;;;;;;;;5101023;27;20036;-89
2022/04/10 03:59:45;;;;;;;0.10;0.10;;;;;;;;;;5100998;27;20100;-91
2022/04/10 04:02:15;;;;;;;0.10;0.10;;;;;;;;;;5100624;27;20035;-90
2022/04/10 04:04:41;;;;;;;0.10;0.10;;;;;;;;;;5117525;27;20046;-90
2022/04/10 04:07:06;;;;;;;0.10;0.10;;;;;;;;;;5117925;27;20039;-89
2022/04/10 04:09:32;;;;;;;0.10;0.10;;;;;;;;;;5100248;27;20211;-90
2022/04/10 04:11:58;;;;;;;0.10;0.10;;;;;;;;;;5100658;27;20039;-90
2022/04/10 04:14:24;;;;;;;0.10;0.10;;;;;;;;;;5100437;27;20035;-90
2022/04/10 04:16:50;;;;;;;0.10;0.10;;;;;;;;;;5100485;27;20035;-90
2022/04/10 04:19:16;;;;;;;0.10;0.10;;;;;;;;;;5117522;27;20051;-91
2022/04/10 04:21:42;;;;;;;0.10;0.10;;;;;;;;;;5134476;27;20039;-91
2022/04/10 04:24:08;;;;;;;0.10;0.10;;;;;;;;;;5117600;27;20047;-91
2022/04/10 04:26:34;;;;;;;0.10;0.10;;;;;;;;;;5117233;27;20035;-90
2022/04/10 04:29:01;;;;;;;0.10;0.10;;;;;;;;;;5117075;27;20443;-91
2022/04/10 04:31:27;;;;;;;0.10;0.10;;;;;;;;;;5099281;28;20043;-90
2022/04/10 04:33:53;;;;;;;0.10;0.10;;;;;;;;;;5116853;27;20470;-89
2022/04/10 04:36:19;;;;;;;0.10;0.10;;;;;;;;;;5099879;27;20051;-88
2022/04/10 04:38:45;;;;;;;0.10;0.10;;;;;;;;;;5116611;27;20510;-89
2022/04/10 04:41:12;;;;;;;0.10;0.10;;;;;;;;;;5099880;27;20039;-89
2022/04/10 04:43:38;;;;;;;0.10;0.10;;;;;;;;;;5116419;27;20046;-89
2022/04/10 04:46:04;;;;;;;0.10;0.10;;;;;;;;;;5116505;27;20051;-88
2022/04/10 04:48:29;;;;;;;0.10;0.10;;;;;;;;;;5099444;27;20202;-89
2022/04/10 04:50:55;;;;;;;0.10;0.10;;;;;;;;;;5116854;27;20050;-90
2022/04/10 04:53:21;;;;;;;0.10;0.10;;;;;;;;;;5116744;27;20078;-90
2022/04/10 04:55:47;;;;;;;0.10;0.10;;;;;;;;;;5099475;27;20039;-89
2022/04/10 04:58:13;;;;;;;0.10;0.10;;;;;;;;;;5116262;27;20042;-90
2022/04/10 05:00:39;;;;;;;0.10;0.10;;;;;;;;;;5099210;27;20039;-90
2022/04/10 05:03:05;;;;;;;0.10;0.10;;;;;;;;;;5116314;27;20039;-89
2022/04/10 05:05:32;;;;;;;0.10;0.10;;;;;;;;;;5099139;27;20196;-90
2022/04/10 05:07:58;;;;;;;0.10;0.10;;;;;;;;;;5099662;27;20066;-91
2022/04/10 05:10:24;;;;;;;0.10;0.10;;;;;;;;;;5100190;27;20051;-91
2022/04/10 05:12:50;;;;;;;0.10;0.10;;;;;;;;;;5099370;27;20474;-90
2022/04/10 05:15:16;;;;;;;0.32;0.32;;;;;;;;;;5116471;27;20035;-90
2022/04/10 05:17:42;;;;;;;0.10;0.10;;;;;;;;;;5116921;27;20037;-90
2022/04/10 05:20:08;;;;;;;0.10;0.10;;;;;;;;;;5116309;27;20468;-90
2022/04/10 05:22:34;;;;;;;0.10;0.10;;;;;;;;;;5099274;27;20057;-91
2022/04/10 05:25:00;;;;;;;0.10;0.10;;;;;;;;;;5099371;27;20132;-89
2022/04/10 05:27:26;;;;;;;0.10;0.10;;;;;;;;;;5099099;27;20043;-90
2022/04/10 05:29:52;;;;;;;0.10;0.10;;;;;;;;;;5115666;27;20036;-89
2022/04/10 05:32:18;;;;;;;0.17;0.17;;;;;;;;;;5098711;27;20071;-89
2022/04/10 05:34:45;;;;;;;0.10;0.10;;;;;;;;;;5115734;27;20470;-88
2022/04/10 05:37:11;;;;;;;0.10;0.10;;;;;;;;;;5115612;27;20520;-89
2022/04/10 05:39:39;;;;;;;0.10;0.10;;;;;;;;;;5115635;27;20490;-90
2022/04/10 05:42:05;;;;;;;0.10;0.10;;;;;;;;;;5115789;27;20038;-90
2022/04/10 05:44:32;;;;;;;0.10;0.10;;;;;;;;;;5115316;27;20175;-89
2022/04/10 05:46:58;;;;;;;0.10;0.10;;;;;;;;;;5098706;27;20066;-88
2022/04/10 05:49:24;;;;;;;0.10;0.10;;;;;;;;;;5115384;27;20058;-89
2022/04/10 05:51:51;;;;;;;0.10;0.10;;;;;;;;;;5115478;27;20075;-89
2022/04/10 05:54:18;;;;;;;0.10;0.10;;;;;;;;;;5115529;27;20461;-89
2022/04/10 05:56:44;;;;;;;0.10;0.10;;;;;;;;;;5115432;27;20126;-89
2022/04/10 05:59:10;;;;;;;0.10;0.10;;;;;;;;;;5115530;28;20108;-90
2022/04/10 06:01:36;;;;;;;0.20;0.20;;;;;;;;;;5115503;27;20486;-90
2022/04/10 06:04:02;;;;;;;0.10;0.10;;;;;;;;;;5115345;27;20398;-90
2022/04/10 06:06:28;;;;;;;0.10;0.10;;;;;;;;;;5098502;28;20096;-89
2022/04/10 06:08:55;;;;;;;0.10;0.10;;;;;;;;;;5099056;28;20108;-93
2022/04/10 06:11:25;;;;;;;0.10;0.10;;;;;;;;;;5099949;28;20185;-91
2022/04/10 06:13:50;;;;;;;0.20;0.20;;;;;;;;;;5099142;28;20179;-91
2022/04/10 06:16:16;;;;;;;0.10;0.10;;;;;;;;;;5098963;28;20074;-92
2022/04/10 06:18:44;;;;;;;0.10;0.10;;;;;;;;;;5098862;27;20043;-93
2022/04/10 06:21:10;;;;;;;0.10;0.10;;;;;;;;;;5098971;28;20081;-91
2022/04/10 06:23:36;;;;;;;0.10;0.10;;;;;;;;;;5099257;28;20368;-93
2022/04/10 06:26:03;;;;;;;0.10;0.10;;;;;;;;;;5099110;28;20068;-94
2022/04/10 06:28:30;;;;;;;0.10;0.10;;;;;;;;;;5098679;28;20180;-90
2022/04/10 06:30:56;;;;;;;0.10;0.10;;;;;;;;;;5115200;28;20046;-91
2022/04/10 06:33:22;;;;;;;0.10;0.10;;;;;;;;;;5115509;27;20039;-91
2022/04/10 06:35:48;;;;;;;0.10;0.10;;;;;;;;;;5098492;28;20398;-91
2022/04/10 06:38:14;;;;;;;0.10;0.10;;;;;;;;;;5115608;28;20100;-91
2022/04/10 06:40:40;;;;;;;0.10;0.10;;;;;;;;;;5098559;28;20562;-90
2022/04/10 06:43:07;;;;;;;0.10;0.10;;;;;;;;;;5098234;28;20539;-90
2022/04/10 06:45:36;;;;;;;0.10;0.10;;;;;;;;;;5098337;27;20092;-91
2022/04/10 06:48:02;;;;;;;0.10;0.10;;;;;;;;;;5115493;27;20035;-89
2022/04/10 06:50:28;;;;;;;1.85;0.30;;;;;;;;;;5098561;28;20450;-90
2022/04/10 06:52:54;;;;;;;0.10;0.10;;;;;;;;;;5115070;28;20046;-91
2022/04/10 06:55:20;;;;;;;0.10;0.10;;;;;;;;;;5116602;27;20114;-91
2022/04/10 06:57:48;;;;;;;0.10;0.10;;;;;;;;;;5119263;27;20471;-91
2022/04/10 07:00:15;;;;;;;0.10;0.10;;;;;;;;;;5102113;27;20039;-91
2022/04/10 07:02:41;;;;;;;0.10;0.10;;;;;;;;;;5101899;27;20035;-90
2022/04/10 07:05:08;;;;;;;0.10;0.10;;;;;;;;;;5118716;27;20528;-91
2022/04/10 07:07:34;;;;;;;0.10;0.10;;;;;;;;;;5133909;27;20043;-90
2022/04/10 07:10:00;;;;;;;0.10;0.10;;;;;;;;;;5119179;27;20130;-89
2022/04/10 07:12:26;;;;;;;0.10;0.10;;;;;;;;;;5101670;27;20046;-90
2022/04/10 07:14:52;;;;;;;0.10;0.10;;;;;;;;;;5101319;27;20152;-90
2022/04/10 07:17:19;;;;;;;0.10;0.10;;;;;;;;;;5101389;27;20415;-91
2022/04/10 07:19:45;;;;;;;0.10;0.10;;;;;;;;;;5101489;27;20039;-87
2022/04/10 07:24:56;;;;;;;0.10;0.10;;;;;;;;;;5120672;27;20046;-89
2022/04/10 07:27:22;;;;;;;0.10;0.10;;;;;;;;;;5117991;27;20038;-92
2022/04/10 07:29:48;;;;;;;0.10;0.10;;;;;;;;;;5117863;27;20039;-92
2022/04/10 07:32:14;;;;;;;0.10;0.10;;;;;;;;;;5101629;27;20067;-94
2022/04/10 07:34:40;;;;;;;0.10;0.10;;;;;;;;;;5118331;27;20363;-90
2022/04/10 07:37:06;;;;;;;0.65;0.65;;;;;;;;;;5118847;27;20031;-94
2022/04/10 07:39:32;;;;;;;0.10;0.10;;;;;;;;;;5101854;27;20043;-94
2022/04/10 07:41:59;;;;;;;0.10;0.10;;;;;;;;;;5117966;27;20047;-90
2022/04/10 07:44:25;;;;;;;0.10;0.10;;;;;;;;;;5135697;27;20042;-91
2022/04/10 07:49:40;;;;;;;0.10;0.10;;;;;;;;;;5120911;27;20049;-91
2022/04/10 07:52:06;;;;;;;0.10;0.10;;;;;;;;;;5117576;27;20118;-91
2022/04/10 07:54:32;;;;;;;0.10;0.10;;;;;;;;;;5117629;27;20038;-90
2022/04/10 07:56:58;;;;;;;0.10;0.10;;;;;;;;;;5117768;27;20031;-91
2022/04/10 07:59:24;;;;;;;0.10;0.10;;;;;;;;;;5100131;27;20073;-91
2022/04/10 08:01:50;;;;;;;0.10;0.10;;;;;;;;;;5100451;27;20050;-91
2022/04/10 08:04:16;;;;;;;0.10;0.10;;;;;;;;;;5100593;27;20039;-90
2022/04/10 08:06:42;;;;;;;0.10;0.10;;;;;;;;;;5100035;27;20122;-90
2022/04/10 08:09:08;;;;;;;0.10;0.10;;;;;;;;;;5117519;27;20180;-91
2022/04/10 08:11:34;;;;;;;0.22;0.22;;;;;;;;;;5102021;27;20405;-90
2022/04/10 08:14:00;;;;;;;0.10;0.10;;;;;;;;;;5117636;27;20035;-90
2022/04/10 08:16:26;;;;;;;0.10;0.10;;;;;;;;;;5116893;27;20121;-90
2022/04/10 08:18:53;;;;;;;0.10;0.10;;;;;;;;;;5117768;27;20096;-90
2022/04/10 08:21:19;;;;;;;0.10;0.10;;;;;;;;;;5101131;27;20046;-90
2022/04/10 08:23:45;;;;;;;0.32;0.32;;;;;;;;;;5099307;27;20043;-90
2022/04/10 08:26:11;;;;;;;0.20;0.20;;;;;;;;;;5116561;27;20050;-90
2022/04/10 08:28:44;;;;;;;0.10;0.10;;;;;;;;;;5099295;27;20045;-90
2022/04/10 08:31:10;;;;;;;0.10;0.10;;;;;;;;;;5100872;27;20039;-90
2022/04/10 08:33:36;;;;;;;0.10;0.10;;;;;;;;;;5099482;27;20103;-91
2022/04/10 08:36:02;;;;;;;0.10;0.10;;;;;;;;;;5099447;27;20469;-91
2022/04/10 08:38:29;;;;;;;0.47;0.47;;;;;;;;;;5116372;27;20077;-90
2022/04/10 08:40:57;;;;;;;0.10;0.10;;;;;;;;;;5116482;27;20043;-89
2022/04/10 08:43:23;;;;;;;0.10;0.10;;;;;;;;;;5099246;27;20099;-93
2022/04/10 08:45:49;;;;;;;0.13;0.13;;;;;;;;;;5100488;27;20042;-90
2022/04/10 08:48:15;;;;;;;0.10;0.10;;;;;;;;;;5115918;27;20134;-90
2022/04/10 08:50:41;;;;;;;0.10;0.10;;;;;;;;;;5099849;27;20043;-92
2022/04/10 08:53:07;;;;;;;0.10;0.10;;;;;;;;;;5099736;27;20078;-91
2022/04/10 08:55:33;;;;;;;0.10;0.10;;;;;;;;;;5099854;27;20390;-93
2022/04/10 08:58:02;;;;;;;0.10;0.10;;;;;;;;;;5099108;27;20045;-91
2022/04/10 09:00:28;;;;;;;0.10;0.10;;;;;;;;;;5115971;27;20043;-90
2022/04/10 09:02:54;;;;;;;0.10;0.10;;;;;;;;;;5132704;27;20035;-90
2022/04/10 09:05:24;;;;;;;0.10;0.10;;;;;;;;;;5116335;27;20042;-93
2022/04/10 09:08:06;;;;;;;0.10;0.10;;;;;;;;;;5099192;27;20574;-93
2022/04/10 09:10:37;;;;;;;0.10;0.10;;;;;;;;;;5115822;27;20500;-92
2022/04/10 09:13:07;;;;;;;0.10;0.10;;;;;;;;;;5099417;27;20415;-93
2022/04/10 09:15:33;;;;;;;0.10;0.10;;;;;;;;;;5116423;27;20047;-93
2022/04/10 09:17:59;;;;;;;0.20;0.20;;;;;;;;;;5132566;27;20039;-90
2022/04/10 09:20:25;;;;;;;0.10;0.10;;;;;;;;;;5115462;27;20134;-90
2022/04/10 09:22:51;;;;;;;0.10;0.10;;;;;;;;;;5132346;27;20509;-88
2022/04/10 09:25:17;;;;;;;0.28;0.28;;;;;;;;;;5098432;27;20039;-89
2022/04/10 09:27:44;;;;;;;0.10;0.10;;;;;;;;;;5115404;27;20042;-89
2022/04/10 09:30:14;;;;;;;0.20;0.20;;;;;;;;;;5115014;27;20031;-89
2022/04/10 09:32:41;;;;;;;0.20;0.20;;;;;;;;;;5098575;27;20043;-90
2022/04/10 09:35:07;;;;;;;0.10;0.10;;;;;;;;;;5116017;27;20126;-92
2022/04/10 09:37:41;;;;;;;0.25;0.25;;;;;;;;;;5098497;27;20039;-90
2022/04/10 09:40:19;;;;;;;0.10;0.10;;;;;;;;;;5115630;27;20147;-89
2022/04/10 09:42:45;;;;;;;0.20;0.20;;;;;;;;;;5115774;27;20039;-92
2022/04/10 09:45:47;;;;;;;0.10;0.10;;;;;;;;;;5116047;27;20043;-92
2022/04/10 09:48:17;;;;;;;0.20;0.20;;;;;;;;;;5074907;28;20594;-92
2022/04/10 09:50:43;;;;;;;0.10;0.10;;;;;;;;;;5108795;27;20520;-93
2022/04/10 09:53:11;;;;;;;0.10;0.10;;;;;;;;;;5133462;27;20390;-92
2022/04/10 09:55:38;;;;;;;0.10;0.10;;;;;;;;;;5099812;27;20035;-93
2022/04/10 09:58:10;;;;;;;0.17;0.17;;;;;;;;;;5116168;27;20102;-93
2022/04/10 10:00:39;;;;;;;0.10;0.10;;;;;;;;;;5101314;28;20122;-89
2022/04/10 10:03:06;;;;;;;0.10;0.10;;;;;;;;;;5097977;28;20039;-90
2022/04/10 10:05:32;;;;;;;4.38;0.30;;;;;;;;;;5132032;27;20039;-89
2022/04/10 10:08:05;;;;;;;0.10;0.10;;;;;;;;;;5115544;28;20051;-89
2022/04/10 10:10:31;;;;;;;0.10;0.10;;;;;;;;;;5133491;28;20046;-92
2022/04/10 10:12:58;;;;;;;0.10;0.10;;;;;;;;;;5117057;28;20049;-92
2022/04/10 10:15:24;;;;;;;0.17;0.17;;;;;;;;;;5098914;28;20036;-92
2022/04/10 10:17:51;;;;;;;0.10;0.10;;;;;;;;;;5099193;28;20064;-92
2022/04/10 10:20:18;;;;;;;0.10;0.10;;;;;;;;;;5115841;28;20126;-89
2022/04/10 10:22:44;;;;;;;0.10;0.10;;;;;;;;;;5098066;28;20035;-89
2022/04/10 10:25:12;;;;;;;0.10;0.10;;;;;;;;;;5131998;28;20035;-88
2022/04/10 10:27:37;;;;;;;0.10;0.10;;;;;;;;;;5097748;28;20047;-90
2022/04/10 10:30:08;;;;;;;0.10;0.10;;;;;;;;;;5115433;27;20490;-89
2022/04/10 10:32:41;;;;;;;0.10;0.10;;;;;;;;;;5118755;27;20498;-90
2022/04/10 10:35:09;;;;;;;0.20;0.20;;;;;;;;;;5118936;27;20112;-90
2022/04/10 10:37:46;;;;;;;0.10;0.10;;;;;;;;;;5102348;27;20041;-90
2022/04/10 10:40:19;;;;;;;0.10;0.10;;;;;;;;;;5102251;27;20050;-90
2022/04/10 10:42:46;;;;;;;1.08;1.00;;;;;;;;;;5102302;27;20121;-91
2022/04/10 10:45:12;;;;;;;0.10;0.10;;;;;;;;;;5102139;27;20499;-92
2022/04/10 10:47:39;;;;;;;0.10;0.10;;;;;;;;;;5118802;27;20461;-91
2022/04/10 10:50:24;;;;;;;0.10;0.10;;;;;;;;;;5102178;27;20045;-91
2022/04/10 10:53:11;;;;;;;0.10;0.10;;;;;;;;;;5118968;27;20035;-91
2022/04/10 10:55:48;;;;;;;0.10;0.10;;;;;;;;;;5118372;27;20032;-91
2022/04/10 10:58:21;;;;;;;0.10;0.10;;;;;;;;;;5101873;27;20054;-91
2022/04/10 11:00:47;;;;;;;0.10;0.10;;;;;;;;;;5101566;27;20043;-91
2022/04/10 11:03:14;;;;;;;0.17;0.17;;;;;;;;;;5118682;27;20031;-91
2022/04/10 11:05:40;;;;;;;0.10;0.10;;;;;;;;;;5102010;27;20035;-91
2022/04/10 11:08:07;;;;;;;0.10;0.10;;;;;;;;;;5101500;27;20139;-91
2022/04/10 11:10:59;;;;;;;0.10;0.10;;;;;;;;;;5101757;27;20066;-91
2022/04/10 11:13:26;;;;;;;0.10;0.10;;;;;;;;;;5095338;28;20044;-92
2022/04/10 11:15:53;;;;;;;0.10;0.10;;;;;;;;;;5080993;28;20043;-92
2022/04/10 11:18:30;;;;;;;0.20;0.20;;;;;;;;;;5097762;28;20048;-90
2022/04/10 11:21:01;;;;;;;0.10;0.10;;;;;;;;;;5098097;28;20044;-91
2022/04/10 11:23:31;;;;;;;0.10;0.10;;;;;;;;;;5097930;28;20052;-90
2022/04/10 11:26:02;;;;;;;0.10;0.10;;;;;;;;;;5080741;28;20047;-89
2022/04/10 11:28:28;;;;;;;0.10;0.10;;;;;;;;;;5081887;28;20043;-90
2022/04/10 11:30:55;;;;;;;0.10;0.10;;;;;;;;;;5080952;28;20046;-91
2022/04/10 11:33:21;;;;;;;0.10;0.10;;;;;;;;;;5097436;28;20368;-90
2022/04/10 11:35:55;;;;;;;0.10;0.10;;;;;;;;;;5097565;28;20046;-87
2022/04/10 11:38:21;;;;;;;0.10;0.10;;;;;;;;;;5080491;28;20039;-90
2022/04/10 11:40:51;;;;;;;0.20;0.20;;;;;;;;;;5097086;28;20082;-92
2022/04/10 11:43:18;;;;;;;0.10;0.10;;;;;;;;;;5081221;28;20079;-91
2022/04/10 11:45:44;;;;;;;0.10;0.10;;;;;;;;;;5097747;28;20482;-92
2022/04/10 11:48:10;;;;;;;0.10;0.10;;;;;;;;;;5080442;28;20039;-90
2022/04/10 11:50:36;;;;;;;0.10;0.10;;;;;;;;;;5080868;28;20040;-90
2022/04/10 11:53:03;;;;;;;0.10;0.10;;;;;;;;;;5080353;28;20078;-91
2022/04/10 11:55:36;;;;;;;0.10;0.10;;;;;;;;;;5114267;28;20039;-91
2022/04/10 11:58:15;;;;;;;0.10;0.10;;;;;;;;;;5097210;28;20039;-90
2022/04/10 12:00:45;;;;;;;0.10;0.10;;;;;;;;;;5082362;28;20046;-95
2022/04/10 12:03:11;;;;;;;0.10;0.10;;;;;;;;;;5081969;28;20532;-92
2022/04/10 12:05:37;;;;;;;0.20;0.20;;;;;;;;;;5080956;28;20044;-92
2022/04/10 12:08:04;;;;;;;0.10;0.10;;;;;;;;;;5097674;28;20047;-92
2022/04/10 12:10:30;;;;;;;0.10;0.10;;;;;;;;;;5081144;28;20439;-92
2022/04/10 12:12:57;;;;;;;0.10;0.10;;;;;;;;;;5098301;28;20042;-92
2022/04/10 12:15:23;;;;;;;0.10;0.10;;;;;;;;;;5081537;28;20474;-92
2022/04/10 12:17:50;;;;;;;0.10;0.10;;;;;;;;;;5081524;28;20493;-93
2022/04/10 12:20:16;;;;;;;0.10;0.10;;;;;;;;;;5097736;28;20090;-92
2022/04/10 12:22:42;;;;;;;0.10;0.10;;;;;;;;;;5082167;28;20092;-93
2022/04/10 12:25:09;;;;;;;0.13;0.13;;;;;;;;;;5098867;28;20043;-92
2022/04/10 12:27:35;;;;;;;0.10;0.10;;;;;;;;;;5092544;28;20044;-91
2022/04/10 12:30:08;;;;;;;0.10;0.10;;;;;;;;;;5092213;28;20036;-91
2022/04/10 12:32:34;;;;;;;0.10;0.10;;;;;;;;;;5083481;28;20083;-90
2022/04/10 12:35:07;;;;;;;0.10;0.10;;;;;;;;;;5093398;28;20035;-91
2022/04/10 12:37:33;;;;;;;0.10;0.10;;;;;;;;;;5085835;28;20116;-92
2022/04/10 12:40:00;;;;;;;0.10;0.10;;;;;;;;;;5093264;28;20051;-92
2022/04/10 12:42:26;;;;;;;0.10;0.10;;;;;;;;;;5098025;28;20050;-92
2022/04/10 12:44:56;;;;;;;0.10;0.10;;;;;;;;;;5104059;28;20047;-92
2022/04/10 12:47:41;;;;;;;0.10;0.10;;;;;;;;;;5079701;28;20043;-91
2022/04/10 12:50:07;;;;;;;0.10;0.10;;;;;;;;;;5096451;28;20466;-94
2022/04/10 12:52:34;;;;;;;0.10;0.10;;;;;;;;;;5079194;28;20071;-92
2022/04/10 12:55:00;;;;;;;0.20;0.20;;;;;;;;;;5079533;28;20122;-91
2022/04/10 12:57:27;;;;;;;0.10;0.10;;;;;;;;;;5096359;28;20032;-91
2022/04/10 12:59:54;;;;;;;0.10;0.10;;;;;;;;;;5112856;28;20142;-91
2022/04/10 13:02:23;;;;;;;0.25;0.25;;;;;;;;;;5113350;28;20047;-92
2022/04/10 13:04:53;;;;;;;0.10;0.10;;;;;;;;;;5096390;28;20049;-92
2022/04/10 13:07:19;;;;;;;0.10;0.10;;;;;;;;;;5096867;28;20435;-94
2022/04/10 13:10:14;;;;;;;0.10;0.10;;;;;;;;;;5079194;28;20051;-91
2022/04/10 13:12:40;;;;;;;0.10;0.10;;;;;;;;;;5110495;28;20043;-92
2022/04/10 13:15:06;;;;;;;0.10;0.10;;;;;;;;;;5096150;28;20035;-93
2022/04/10 13:17:33;;;;;;;0.17;0.17;;;;;;;;;;5079139;28;20043;-92
2022/04/10 13:20:05;;;;;;;0.25;0.25;;;;;;;;;;5079132;28;20047;-92
2022/04/10 13:22:32;;;;;;;0.10;0.10;;;;;;;;;;5096293;28;20122;-92
2022/04/10 13:24:58;;;;;;;0.10;0.10;;;;;;;;;;5093659;27;20504;-91
2022/04/10 13:27:24;;;;;;;0.10;0.10;;;;;;;;;;5115787;27;20035;-90
2022/04/10 13:29:50;;;;;;;0.10;0.10;;;;;;;;;;5098608;27;20043;-90
2022/04/10 13:32:18;;;;;;;0.10;0.10;;;;;;;;;;5098671;27;20075;-91
2022/04/10 13:34:44;;;;;;;0.10;0.10;;;;;;;;;;5098932;27;20402;-90
2022/04/10 13:37:10;;;;;;;0.10;0.10;;;;;;;;;;5115466;27;20031;-90
2022/04/10 13:39:36;;;;;;;0.10;0.10;;;;;;;;;;5115434;27;20378;-90
2022/04/10 13:42:03;;;;;;;0.10;0.10;;;;;;;;;;5115773;27;20050;-90
2022/04/10 13:44:29;;;;;;;0.10;0.10;;;;;;;;;;5098204;27;20477;-90
2022/04/10 13:46:55;;;;;;;0.10;0.10;;;;;;;;;;5098387;27;20122;-92
2022/04/10 13:49:21;;;;;;;0.10;0.10;;;;;;;;;;5098526;27;20088;-91
2022/04/10 13:51:47;;;;;;;0.10;0.10;;;;;;;;;;5115178;27;20070;-89
2022/04/10 13:54:13;;;;;;;0.10;0.10;;;;;;;;;;5115292;27;20111;-89
2022/04/10 13:56:39;;;;;;;0.10;0.10;;;;;;;;;;5115169;27;20035;-91
2022/04/10 13:59:05;;;;;;;0.10;0.10;;;;;;;;;;5132712;27;20393;-91
2022/04/10 14:01:32;;;;;;;0.10;0.10;;;;;;;;;;5115744;27;20049;-90
2022/04/10 14:03:58;;;;;;;0.10;0.10;;;;;;;;;;5098679;27;20103;-92
2022/04/10 14:06:24;;;;;;;0.10;0.10;;;;;;;;;;5115656;27;20043;-91
2022/04/10 14:08:50;;;;;;;0.20;0.20;;;;;;;;;;5132602;27;20091;-93
2022/04/10 14:11:16;;;;;;;0.10;0.10;;;;;;;;;;5099103;28;20035;-94
2022/04/10 14:13:42;;;;;;;0.10;0.10;;;;;;;;;;5098694;28;20067;-93
2022/04/10 14:16:08;;;;;;;0.10;0.10;;;;;;;;;;5115726;28;20092;-93
2022/04/10 14:18:33;;;;;;;0.10;0.10;;;;;;;;;;5098834;28;20093;-93
2022/04/10 14:20:59;;;;;;;0.10;0.10;;;;;;;;;;5098830;28;20035;-92
2022/04/10 14:23:25;;;;;;;0.10;0.10;;;;;;;;;;5098454;28;20089;-92
2022/04/10 14:25:51;;;;;;;0.13;0.13;;;;;;;;;;5098761;28;20036;-92
2022/04/10 14:28:17;;;;;;;0.10;0.10;;;;;;;;;;5098040;28;20092;-92
2022/04/10 14:30:43;;;;;;;0.10;0.10;;;;;;;;;;5115700;28;20028;-92
2022/04/10 14:33:09;;;;;;;0.10;0.10;;;;;;;;;;5098207;28;20084;-92
2022/04/10 14:35:35;;;;;;;0.10;0.10;;;;;;;;;;5114773;28;20138;-89
2022/04/10 14:38:01;;;;;;;0.10;0.10;;;;;;;;;;5097919;28;20035;-91
2022/04/10 14:40:27;;;;;;;0.10;0.10;;;;;;;;;;5098398;28;20039;-91
2022/04/10 14:42:53;;;;;;;0.10;0.10;;;;;;;;;;5098562;28;20486;-92
2022/04/10 14:45:19;;;;;;;0.10;0.10;;;;;;;;;;5115238;28;20156;-89
2022/04/10 14:47:45;;;;;;;0.10;0.10;;;;;;;;;;5097608;28;20694;-89